Wetterdaten: Woche 11.08.08 - 17.08.08 (KW33)
Datum Zeit Temperatur Luftfeuchte Luftdruck Niederschlag Wind Richtung Sonnenschein Solar Taupunkt Windchill Windben
11.08.2008 00:00 17.0 C 83 % 1010.0 hPa 0.0 l/m 2.2 km/h (1 Bft) O 0.00 h 0 W/m 14.0 C 17.0 C 3.6 km/h (1 Bft)
11.08.2008 01:00 16.3 C 85 % 1010.2 hPa 0.0 l/m 0.8 km/h (0 Bft) O-SO 0.00 h 0 W/m 13.7 C 16.3 C 1.6 km/h (1 Bft)
11.08.2008 02:00 15.8 C 87 % 1009.9 hPa 0.0 l/m 1.4 km/h (1 Bft) O-SO 0.00 h 0 W/m 13.6 C 15.8 C 2.5 km/h (1 Bft)
11.08.2008 03:00 15.7 C 87 % 1009.8 hPa 0.0 l/m 0.7 km/h (0 Bft) O-SO 0.00 h 0 W/m 13.5 C 15.7 C 1.2 km/h (1 Bft)
11.08.2008 04:00 14.9 C 91 % 1009.4 hPa 0.0 l/m 0.2 km/h (0 Bft) O-SO 0.00 h 0 W/m 13.4 C 14.9 C 0.8 km/h (0 Bft)
11.08.2008 05:00 14.3 C 94 % 1009.2 hPa 0.0 l/m 0.4 km/h (0 Bft) O-SO 0.00 h 0 W/m 13.4 C 14.3 C 0.9 km/h (0 Bft)
11.08.2008 06:00 14.4 C 95 % 1009.2 hPa 0.0 l/m 0.9 km/h (0 Bft) SO 0.07 h 17 W/m 13.5 C 14.4 C 1.8 km/h (1 Bft)
11.08.2008 07:00 15.1 C 92 % 1009.5 hPa 0.0 l/m 1.2 km/h (1 Bft) W-NW 0.00 h 51 W/m 13.8 C 15.1 C 2.4 km/h (1 Bft)
11.08.2008 08:00 17.6 C 83 % 1008.8 hPa 0.0 l/m 1.0 km/h (0 Bft) O-SO 0.93 h 280 W/m 14.6 C 17.6 C 2.4 km/h (1 Bft)
11.08.2008 09:00 19.5 C 76 % 1008.5 hPa 0.0 l/m 2.3 km/h (1 Bft) N 0.55 h 340 W/m 15.1 C 19.5 C 4.7 km/h (1 Bft)
11.08.2008 10:00 21.4 C 71 % 1007.8 hPa 0.0 l/m 3.0 km/h (1 Bft) W 0.72 h 441 W/m 15.8 C 21.4 C 5.2 km/h (1 Bft)
11.08.2008 11:00 22.3 C 67 % 1007.4 hPa 0.0 l/m 3.4 km/h (1 Bft) W-NW 0.13 h 348 W/m 15.9 C 22.3 C 5.6 km/h (1 Bft)
11.08.2008 12:00 24.4 C 60 % 1006.7 hPa 0.0 l/m 2.5 km/h (1 Bft) O-SO 0.78 h 643 W/m 16.1 C 24.4 C 5.3 km/h (1 Bft)
11.08.2008 13:00 25.0 C 56 % 1006.1 hPa 0.0 l/m 2.3 km/h (1 Bft) N 0.30 h 409 W/m 15.7 C 25.0 C 4.3 km/h (1 Bft)
11.08.2008 14:00 24.8 C 58 % 1005.5 hPa 0.0 l/m 4.5 km/h (1 Bft) N-NW 0.03 h 317 W/m 15.8 C 24.8 C 7.4 km/h (2 Bft)
11.08.2008 15:00 24.4 C 58 % 1005.1 hPa 0.0 l/m 5.7 km/h (1 Bft) W-NW 0.00 h 226 W/m 15.4 C 24.4 C 8.9 km/h (2 Bft)
11.08.2008 16:00 22.2 C 67 % 1005.7 hPa 0.4 l/m 10.8 km/h (2 Bft) W 0.00 h 84 W/m 15.6 C 22.2 C 17.7 km/h (3 Bft)
11.08.2008 17:00 18.5 C 94 % 1007.0 hPa 2.2 l/m 2.8 km/h (1 Bft) W 0.00 h 48 W/m 17.5 C 18.5 C 5.4 km/h (1 Bft)
11.08.2008 18:00 18.5 C 95 % 1006.3 hPa 0.4 l/m 6.5 km/h (2 Bft) O-SO 0.00 h 38 W/m 17.7 C 18.5 C 9.5 km/h (2 Bft)
11.08.2008 19:00 18.4 C 95 % 1005.9 hPa 0.0 l/m 1.0 km/h (0 Bft) O-SO 0.00 h 21 W/m 17.6 C 18.4 C 2.7 km/h (1 Bft)
11.08.2008 20:00 18.2 C 96 % 1005.4 hPa 0.0 l/m 0.0 km/h (0 Bft) N 0.00 h 5 W/m 17.6 C 18.2 C 0.2 km/h (0 Bft)
11.08.2008 21:00 18.0 C 97 % 1005.3 hPa 0.0 l/m 1.8 km/h (1 Bft) O-SO 0.00 h 0 W/m 17.4 C 18.0 C 3.0 km/h (1 Bft)
11.08.2008 22:00 17.7 C 98 % 1005.2 hPa 0.2 l/m 0.1 km/h (0 Bft) O 0.00 h 0 W/m 17.4 C 17.7 C 0.4 km/h (0 Bft)
11.08.2008 23:00 17.7 C 99 % 1004.8 hPa 1.6 l/m 2.3 km/h (1 Bft) O 0.00 h 0 W/m 17.6 C 17.7 C 3.9 km/h (1 Bft)
12.08.2008 00:00 17.6 C 100 % 1004.4 hPa 2.0 l/m 0.4 km/h (0 Bft) SO 0.00 h 0 W/m 17.6 C 17.6 C 1.3 km/h (1 Bft)
12.08.2008 01:00 17.5 C 100 % 1003.8 hPa 4.2 l/m 0.5 km/h (0 Bft) SO 0.00 h 0 W/m 17.5 C 17.5 C 1.8 km/h (1 Bft)
12.08.2008 02:00 17.3 C 100 % 1003.2 hPa 5.0 l/m 0.5 km/h (0 Bft) O-SO 0.00 h 0 W/m 17.3 C 17.3 C 1.2 km/h (1 Bft)
12.08.2008 03:00 17.3 C 100 % 1002.4 hPa 1.6 l/m 0.5 km/h (0 Bft) O-SO 0.00 h 0 W/m 17.3 C 17.3 C 1.3 km/h (1 Bft)
12.08.2008 04:00 17.3 C 100 % 1002.2 hPa 0.0 l/m 0.1 km/h (0 Bft) O-SO 0.00 h 0 W/m 17.3 C 17.3 C 0.3 km/h (0 Bft)
12.08.2008 05:00 17.3 C 100 % 1002.0 hPa 0.2 l/m 1.5 km/h (1 Bft) O-SO 0.00 h 0 W/m 17.3 C 17.3 C 2.5 km/h (1 Bft)
12.08.2008 06:00 17.3 C 100 % 1001.8 hPa 0.6 l/m 0.3 km/h (0 Bft) O-SO 0.00 h 5 W/m 17.3 C 17.3 C 1.0 km/h (0 Bft)
12.08.2008 07:00 17.4 C 100 % 1001.8 hPa 3.2 l/m 1.1 km/h (0 Bft) O-SO 0.00 h 18 W/m 17.4 C 17.4 C 2.5 km/h (1 Bft)
12.08.2008 08:00 17.4 C 100 % 1001.7 hPa 2.6 l/m 1.0 km/h (0 Bft) O 0.00 h 32 W/m 17.4 C 17.4 C 1.8 km/h (1 Bft)
12.08.2008 09:00 17.7 C 100 % 1001.1 hPa 0.4 l/m 0.2 km/h (0 Bft) O 0.00 h 60 W/m 17.7 C 17.7 C 0.4 km/h (0 Bft)
12.08.2008 10:00 18.3 C 100 % 1000.9 hPa 0.2 l/m 0.3 km/h (0 Bft) O-NO 0.00 h 134 W/m 18.3 C 18.3 C 1.1 km/h (0 Bft)
12.08.2008 11:00 18.9 C 99 % 1001.0 hPa 0.2 l/m 1.8 km/h (1 Bft) S-SO 0.00 h 166 W/m 18.8 C 18.9 C 4.2 km/h (1 Bft)
12.08.2008 12:00 19.0 C 98 % 1001.9 hPa 0.2 l/m 5.7 km/h (1 Bft) W 0.00 h 110 W/m 18.7 C 19.0 C 9.4 km/h (2 Bft)
12.08.2008 13:00 17.3 C 99 % 1003.6 hPa 1.8 l/m 7.0 km/h (2 Bft) W 0.00 h 72 W/m 17.1 C 17.3 C 11.6 km/h (2 Bft)
12.08.2008 14:00 17.5 C 97 % 1004.6 hPa 2.8 l/m 1.8 km/h (1 Bft) S-SO 0.00 h 68 W/m 17.0 C 17.5 C 4.1 km/h (1 Bft)
12.08.2008 15:00 17.3 C 98 % 1005.3 hPa 5.8 l/m 0.9 km/h (0 Bft) SO 0.00 h 67 W/m 16.9 C 17.3 C 2.5 km/h (1 Bft)
12.08.2008 16:00 17.3 C 99 % 1005.3 hPa 3.0 l/m 0.3 km/h (0 Bft) SO 0.00 h 73 W/m 17.2 C 17.3 C 1.5 km/h (1 Bft)
12.08.2008 17:00 16.7 C 99 % 1005.5 hPa 2.6 l/m 1.9 km/h (1 Bft) O-SO 0.00 h 30 W/m 16.5 C 16.7 C 3.8 km/h (1 Bft)
12.08.2008 18:00 16.3 C 98 % 1005.7 hPa 2.2 l/m 2.2 km/h (1 Bft) SO 0.00 h 22 W/m 15.9 C 16.3 C 4.4 km/h (1 Bft)
12.08.2008 19:00 16.1 C 98 % 1006.3 hPa 1.8 l/m 1.5 km/h (1 Bft) SO 0.00 h 11 W/m 15.8 C 16.1 C 3.1 km/h (1 Bft)
12.08.2008 20:00 16.1 C 99 % 1006.9 hPa 2.2 l/m 2.4 km/h (1 Bft) S-SO 0.00 h 11 W/m 16.0 C 16.1 C 5.2 km/h (1 Bft)
12.08.2008 21:00 15.6 C 98 % 1008.0 hPa 2.8 l/m 1.9 km/h (1 Bft) S-SO 0.00 h 0 W/m 15.3 C 15.6 C 4.2 km/h (1 Bft)
12.08.2008 22:00 15.7 C 99 % 1008.8 hPa 1.6 l/m 5.2 km/h (1 Bft) S-SO 0.00 h 0 W/m 15.6 C 15.7 C 9.7 km/h (2 Bft)
12.08.2008 23:00 15.5 C 97 % 1009.1 hPa 1.8 l/m 2.9 km/h (1 Bft) S-SO 0.00 h 0 W/m 15.0 C 15.5 C 6.5 km/h (2 Bft)
13.08.2008 00:00 15.3 C 97 % 1009.2 hPa 0.0 l/m 1.4 km/h (1 Bft) SO 0.00 h 0 W/m 14.8 C 15.3 C 3.4 km/h (1 Bft)
13.08.2008 01:00 15.2 C 97 % 1010.0 hPa 0.0 l/m 1.0 km/h (0 Bft) S 0.00 h 0 W/m 14.7 C 15.2 C 3.5 km/h (1 Bft)
13.08.2008 02:00 14.9 C 97 % 1010.0 hPa 0.0 l/m 1.6 km/h (1 Bft) S-SO 0.00 h 0 W/m 14.4 C 14.9 C 4.3 km/h (1 Bft)
13.08.2008 03:00 14.5 C 97 % 1009.9 hPa 0.0 l/m 1.2 km/h (1 Bft) S-SO 0.00 h 0 W/m 14.0 C 14.5 C 2.7 km/h (1 Bft)
13.08.2008 04:00 13.9 C 97 % 1010.4 hPa 0.0 l/m 2.0 km/h (1 Bft) O-SO 0.00 h 0 W/m 13.4 C 13.9 C 3.3 km/h (1 Bft)
13.08.2008 05:00 13.2 C 97 % 1010.9 hPa 0.0 l/m 2.5 km/h (1 Bft) O-SO 0.00 h 0 W/m 12.8 C 13.2 C 3.9 km/h (1 Bft)
13.08.2008 06:00 12.9 C 98 % 1011.6 hPa 0.0 l/m 2.7 km/h (1 Bft) SO 0.00 h 11 W/m 12.6 C 12.9 C 4.8 km/h (1 Bft)
13.08.2008 07:00 13.2 C 98 % 1012.2 hPa 0.2 l/m 0.8 km/h (0 Bft) SO 0.07 h 53 W/m 13.0 C 13.2 C 1.9 km/h (1 Bft)
13.08.2008 08:00 15.0 C 98 % 1012.7 hPa 0.0 l/m 1.0 km/h (0 Bft) S 0.73 h 243 W/m 14.6 C 15.0 C 2.7 km/h (1 Bft)
13.08.2008 09:00 16.8 C 87 % 1013.1 hPa 0.0 l/m 2.8 km/h (1 Bft) S 0.95 h 477 W/m 14.6 C 16.8 C 7.0 km/h (2 Bft)
13.08.2008 10:00 17.8 C 79 % 1013.2 hPa 0.0 l/m 2.1 km/h (1 Bft) W 0.68 h 503 W/m 14.1 C 17.8 C 4.6 km/h (1 Bft)
13.08.2008 11:00 17.5 C 78 % 1013.6 hPa 0.0 l/m 5.6 km/h (1 Bft) W 0.27 h 373 W/m 13.6 C 17.5 C 9.7 km/h (2 Bft)
13.08.2008 12:00 19.6 C 69 % 1013.6 hPa 0.0 l/m 5.6 km/h (1 Bft) W 0.57 h 657 W/m 13.8 C 19.6 C 9.9 km/h (2 Bft)
13.08.2008 13:00 20.5 C 62 % 1013.6 hPa 0.0 l/m 10.9 km/h (2 Bft) W 0.58 h 658 W/m 12.9 C 20.5 C 17.3 km/h (3 Bft)
13.08.2008 14:00 21.9 C 56 % 1013.4 hPa 0.0 l/m 8.9 km/h (2 Bft) W 0.97 h 796 W/m 12.8 C 21.9 C 14.6 km/h (3 Bft)
13.08.2008 15:00 22.7 C 52 % 1013.3 hPa 0.0 l/m 11.3 km/h (2 Bft) W-NW 1.00 h 739 W/m 12.3 C 22.7 C 18.0 km/h (3 Bft)
13.08.2008 16:00 22.4 C 50 % 1013.5 hPa 0.0 l/m 13.9 km/h (3 Bft) W-NW 0.87 h 596 W/m 11.5 C 22.4 C 21.6 km/h (4 Bft)
13.08.2008 17:00 21.8 C 48 % 1014.0 hPa 0.0 l/m 13.5 km/h (3 Bft) W 0.53 h 303 W/m 10.1 C 21.8 C 20.5 km/h (4 Bft)
13.08.2008 18:00 21.9 C 47 % 1014.2 hPa 0.0 l/m 12.5 km/h (3 Bft) W 0.80 h 281 W/m 9.9 C 21.9 C 19.0 km/h (3 Bft)
13.08.2008 19:00 20.9 C 47 % 1014.6 hPa 0.0 l/m 10.2 km/h (2 Bft) W-NW 0.33 h 97 W/m 9.0 C 20.9 C 15.8 km/h (3 Bft)
13.08.2008 20:00 18.9 C 53 % 1015.4 hPa 0.0 l/m 6.7 km/h (2 Bft) W-NW 0.02 h 12 W/m 9.2 C 18.9 C 9.6 km/h (2 Bft)
13.08.2008 21:00 16.8 C 65 % 1016.0 hPa 0.0 l/m 3.5 km/h (1 Bft) O-SO 0.00 h 0 W/m 10.1 C 16.8 C 4.9 km/h (1 Bft)
13.08.2008 22:00 15.0 C 76 % 1016.4 hPa 0.0 l/m 2.4 km/h (1 Bft) O-SO 0.00 h 0 W/m 10.7 C 15.0 C 4.0 km/h (1 Bft)
13.08.2008 23:00 13.8 C 83 % 1016.8 hPa 0.0 l/m 0.4 km/h (0 Bft) SO 0.00 h 0 W/m 10.8 C 13.8 C 0.8 km/h (0 Bft)
14.08.2008 00:00 12.9 C 86 % 1017.1 hPa 0.0 l/m 0.8 km/h (0 Bft) O-SO 0.00 h 0 W/m 10.5 C 12.9 C 1.7 km/h (1 Bft)
14.08.2008 01:00 12.5 C 89 % 1017.4 hPa 0.0 l/m 0.0 km/h (0 Bft) O-SO 0.00 h 0 W/m 10.8 C 12.5 C 0.5 km/h (0 Bft)
14.08.2008 02:00 12.7 C 89 % 1017.4 hPa 0.0 l/m 0.0 km/h (0 Bft) SO 0.00 h 0 W/m 11.0 C 12.7 C 0.5 km/h (0 Bft)
14.08.2008 03:00 12.4 C 89 % 1017.5 hPa 0.0 l/m 0.1 km/h (0 Bft) SO 0.00 h 0 W/m 10.7 C 12.4 C 0.3 km/h (0 Bft)
14.08.2008 04:00 12.4 C 90 % 1017.8 hPa 0.0 l/m 0.2 km/h (0 Bft) SO 0.00 h 0 W/m 10.8 C 12.4 C 0.6 km/h (0 Bft)
14.08.2008 05:00 11.7 C 92 % 1017.7 hPa 0.0 l/m 0.9 km/h (0 Bft) W-SW 0.00 h 0 W/m 10.4 C 11.7 C 2.5 km/h (1 Bft)
14.08.2008 06:00 11.4 C 94 % 1017.5 hPa 0.0 l/m 0.2 km/h (0 Bft) SO 0.02 h 12 W/m 10.4 C 11.4 C 0.5 km/h (0 Bft)
14.08.2008 07:00 11.8 C 94 % 1017.7 hPa 0.0 l/m 0.7 km/h (0 Bft) S-SW 0.00 h 46 W/m 10.8 C 11.8 C 1.9 km/h (1 Bft)
14.08.2008 08:00 12.9 C 89 % 1017.7 hPa 0.0 l/m 0.1 km/h (0 Bft) O 0.00 h 130 W/m 11.2 C 12.9 C 0.7 km/h (0 Bft)
14.08.2008 09:00 14.4 C 84 % 1017.4 hPa 0.0 l/m 0.5 km/h (0 Bft) O 0.02 h 209 W/m 11.7 C 14.4 C 1.4 km/h (1 Bft)
14.08.2008 10:00 17.2 C 74 % 1017.1 hPa 0.0 l/m 0.7 km/h (0 Bft) O 0.88 h 557 W/m 12.4 C 17.2 C 2.1 km/h (1 Bft)
14.08.2008 11:00 19.9 C 62 % 1016.4 hPa 0.0 l/m 2.0 km/h (1 Bft) W-NW 1.00 h 656 W/m 12.4 C 19.9 C 4.1 km/h (1 Bft)
14.08.2008 12:00 21.7 C 56 % 1015.7 hPa 0.0 l/m 2.5 km/h (1 Bft) W-NW 1.00 h 766 W/m 12.4 C 21.7 C 4.4 km/h (1 Bft)
14.08.2008 13:00 22.3 C 54 % 1015.1 hPa 0.0 l/m 1.9 km/h (1 Bft) NW 1.00 h 697 W/m 12.4 C 22.3 C 3.9 km/h (1 Bft)
14.08.2008 14:00 22.9 C 53 % 1014.7 hPa 0.0 l/m 2.4 km/h (1 Bft) W-NW 0.90 h 650 W/m 12.7 C 22.9 C 5.0 km/h (1 Bft)
14.08.2008 15:00 23.0 C 54 % 1014.2 hPa 0.0 l/m 1.3 km/h (1 Bft) W-SW 0.88 h 503 W/m 13.3 C 23.0 C 3.4 km/h (1 Bft)
14.08.2008 16:00 22.7 C 54 % 1013.9 hPa 0.0 l/m 1.0 km/h (0 Bft) SO 0.55 h 362 W/m 12.9 C 22.7 C 2.9 km/h (1 Bft)
14.08.2008 17:00 22.1 C 55 % 1013.5 hPa 0.0 l/m 0.7 km/h (0 Bft) O-NO 0.00 h 193 W/m 12.5 C 22.1 C 2.3 km/h (1 Bft)
14.08.2008 18:00 21.6 C 57 % 1013.2 hPa 0.0 l/m 0.3 km/h (0 Bft) O-NO 0.00 h 119 W/m 12.8 C 21.6 C 1.5 km/h (1 Bft)
14.08.2008 19:00 20.8 C 61 % 1012.6 hPa 0.0 l/m 0.3 km/h (0 Bft) O-NO 0.00 h 50 W/m 13.1 C 20.8 C 1.2 km/h (1 Bft)
14.08.2008 20:00 19.4 C 73 % 1012.5 hPa 0.0 l/m 0.6 km/h (0 Bft) N 0.00 h 15 W/m 14.3 C 19.4 C 1.8 km/h (1 Bft)
14.08.2008 21:00 18.1 C 77 % 1012.7 hPa 0.0 l/m 0.8 km/h (0 Bft) O 0.00 h 0 W/m 13.9 C 18.1 C 1.9 km/h (1 Bft)
14.08.2008 22:00 17.7 C 78 % 1012.4 hPa 0.0 l/m 1.6 km/h (1 Bft) O 0.00 h 0 W/m 13.8 C 17.7 C 2.8 km/h (1 Bft)
14.08.2008 23:00 17.4 C 79 % 1012.0 hPa 0.0 l/m 0.3 km/h (0 Bft) O 0.00 h 0 W/m 13.8 C 17.4 C 1.2 km/h (1 Bft)
15.08.2008 00:00 16.8 C 84 % 1011.8 hPa 0.4 l/m 4.3 km/h (1 Bft) W 0.00 h 0 W/m 14.1 C 16.8 C 8.2 km/h (2 Bft)
15.08.2008 01:00 14.2 C 94 % 1012.4 hPa 3.6 l/m 9.7 km/h (2 Bft) W-NW 0.00 h 0 W/m 13.3 C 14.2 C 17.6 km/h (3 Bft)
15.08.2008 02:00 13.3 C 97 % 1012.4 hPa 3.4 l/m 2.6 km/h (1 Bft) W-NW 0.00 h 0 W/m 12.8 C 13.3 C 5.3 km/h (1 Bft)
15.08.2008 03:00 13.1 C 100 % 1012.7 hPa 3.6 l/m 2.5 km/h (1 Bft) W-NW 0.00 h 0 W/m 13.0 C 13.1 C 5.0 km/h (1 Bft)
15.08.2008 04:00 13.0 C 100 % 1012.4 hPa 1.4 l/m 0.8 km/h (0 Bft) N 0.00 h 0 W/m 13.0 C 13.0 C 2.1 km/h (1 Bft)
15.08.2008 05:00 13.1 C 99 % 1011.8 hPa 0.4 l/m 0.0 km/h (0 Bft) N-NO 0.00 h 0 W/m 13.0 C 13.1 C 0.3 km/h (0 Bft)
15.08.2008 06:00 13.0 C 100 % 1011.8 hPa 0.2 l/m 0.5 km/h (0 Bft) N-NO 0.00 h 0 W/m 13.0 C 13.0 C 1.7 km/h (1 Bft)
15.08.2008 07:00 12.8 C 100 % 1011.9 hPa 0.0 l/m 0.8 km/h (0 Bft) NW 0.00 h 11 W/m 12.8 C 12.8 C 2.2 km/h (1 Bft)
15.08.2008 08:00 12.9 C 100 % 1011.7 hPa 0.0 l/m 0.7 km/h (0 Bft) NW 0.00 h 22 W/m 12.9 C 12.9 C 2.2 km/h (1 Bft)
15.08.2008 09:00 13.1 C 100 % 1011.7 hPa 0.2 l/m 0.0 km/h (0 Bft) N-NW 0.00 h 33 W/m 13.1 C 13.1 C 0.3 km/h (0 Bft)
15.08.2008 10:00 13.4 C 100 % 1011.8 hPa 0.0 l/m 0.2 km/h (0 Bft) N-NW 0.00 h 67 W/m 13.4 C 13.4 C 1.1 km/h (1 Bft)
15.08.2008 11:00 13.9 C 100 % 1011.5 hPa 0.0 l/m 0.6 km/h (0 Bft) N-NW 0.00 h 75 W/m 13.9 C 13.9 C 1.5 km/h (1 Bft)
15.08.2008 12:00 13.6 C 100 % 1011.8 hPa 1.8 l/m 2.7 km/h (1 Bft) W-NW 0.00 h 62 W/m 13.6 C 13.6 C 5.0 km/h (1 Bft)
15.08.2008 13:00 13.8 C 100 % 1011.9 hPa 1.6 l/m 0.3 km/h (0 Bft) W-NW 0.00 h 109 W/m 13.8 C 13.8 C 0.8 km/h (0 Bft)
15.08.2008 14:00 14.5 C 100 % 1011.9 hPa 0.4 l/m 0.9 km/h (0 Bft) W-NW 0.00 h 121 W/m 14.5 C 14.5 C 2.4 km/h (1 Bft)
15.08.2008 15:00 14.2 C 100 % 1012.5 hPa 0.4 l/m 1.7 km/h (1 Bft) W 0.00 h 106 W/m 14.2 C 14.2 C 3.8 km/h (1 Bft)
15.08.2008 16:00 14.1 C 100 % 1012.9 hPa 1.4 l/m 0.9 km/h (0 Bft) NW 0.00 h 93 W/m 14.1 C 14.1 C 2.1 km/h (1 Bft)
15.08.2008 17:00 14.1 C 100 % 1013.5 hPa 0.2 l/m 0.5 km/h (0 Bft) W-NW 0.00 h 63 W/m 14.1 C 14.1 C 1.7 km/h (1 Bft)
15.08.2008 18:00 14.2 C 100 % 1013.6 hPa 0.2 l/m 0.7 km/h (0 Bft) N-NW 0.00 h 78 W/m 14.2 C 14.2 C 2.0 km/h (1 Bft)
15.08.2008 19:00 13.9 C 100 % 1013.6 hPa 0.0 l/m 0.3 km/h (0 Bft) N-NW 0.00 h 48 W/m 13.9 C 13.9 C 1.2 km/h (1 Bft)
15.08.2008 20:00 13.8 C 99 % 1013.8 hPa 0.0 l/m 0.3 km/h (0 Bft) SW 0.00 h 16 W/m 13.7 C 13.8 C 0.9 km/h (0 Bft)
15.08.2008 21:00 13.6 C 99 % 1014.6 hPa 0.0 l/m 0.1 km/h (0 Bft) SW 0.00 h 0 W/m 13.4 C 13.6 C 0.3 km/h (0 Bft)
15.08.2008 22:00 13.3 C 99 % 1014.8 hPa 0.0 l/m 0.2 km/h (0 Bft) W-NW 0.00 h 0 W/m 13.2 C 13.3 C 0.9 km/h (0 Bft)
15.08.2008 23:00 13.3 C 99 % 1015.2 hPa 0.4 l/m 1.4 km/h (1 Bft) O-SO 0.00 h 0 W/m 13.2 C 13.3 C 2.6 km/h (1 Bft)
16.08.2008 00:00 13.3 C 100 % 1014.9 hPa 0.0 l/m 0.0 km/h (0 Bft) N 0.00 h 0 W/m 13.3 C 13.3 C 0.1 km/h (0 Bft)
16.08.2008 01:00 13.2 C 100 % 1015.0 hPa 0.0 l/m 0.1 km/h (0 Bft) O-SO 0.00 h 0 W/m 13.2 C 13.2 C 0.4 km/h (0 Bft)
16.08.2008 02:00 13.1 C 100 % 1015.0 hPa 0.0 l/m 0.0 km/h (0 Bft) O-SO 0.00 h 0 W/m 13.1 C 13.1 C 0.1 km/h (0 Bft)
16.08.2008 03:00 12.8 C 100 % 1014.5 hPa 0.0 l/m 0.8 km/h (0 Bft) O-SO 0.00 h 0 W/m 12.8 C 12.8 C 1.3 km/h (1 Bft)
16.08.2008 04:00 12.8 C 100 % 1014.5 hPa 0.0 l/m 0.1 km/h (0 Bft) O-SO 0.00 h 0 W/m 12.8 C 12.8 C 0.3 km/h (0 Bft)
16.08.2008 05:00 12.5 C 100 % 1014.5 hPa 0.0 l/m 0.0 km/h (0 Bft) N 0.00 h 0 W/m 12.5 C 12.5 C 0.6 km/h (0 Bft)
16.08.2008 06:00 12.3 C 100 % 1014.7 hPa 0.0 l/m 0.8 km/h (0 Bft) O-SO 0.00 h 14 W/m 12.3 C 12.3 C 1.8 km/h (1 Bft)
16.08.2008 07:00 11.8 C 100 % 1014.8 hPa 0.0 l/m 1.8 km/h (1 Bft) O-SO 0.00 h 45 W/m 11.8 C 11.8 C 3.3 km/h (1 Bft)
16.08.2008 08:00 12.7 C 100 % 1014.5 hPa 0.0 l/m 0.1 km/h (0 Bft) O 0.07 h 140 W/m 12.7 C 12.7 C 0.8 km/h (0 Bft)
16.08.2008 09:00 13.3 C 96 % 1014.2 hPa 0.0 l/m 1.5 km/h (1 Bft) O 0.12 h 200 W/m 12.7 C 13.3 C 4.3 km/h (1 Bft)
16.08.2008 10:00 15.6 C 84 % 1013.6 hPa 0.0 l/m 3.3 km/h (1 Bft) SO 0.77 h 570 W/m 12.9 C 15.6 C 6.2 km/h (2 Bft)
16.08.2008 11:00 17.1 C 71 % 1013.4 hPa 0.0 l/m 8.4 km/h (2 Bft) O-SO 1.00 h 686 W/m 11.8 C 17.1 C 13.9 km/h (3 Bft)
16.08.2008 12:00 18.2 C 65 % 1012.7 hPa 0.0 l/m 12.1 km/h (2 Bft) O-SO 1.00 h 777 W/m 11.4 C 18.2 C 18.7 km/h (3 Bft)
16.08.2008 13:00 19.5 C 59 % 1011.9 hPa 0.0 l/m 6.4 km/h (2 Bft) O-SO 1.00 h 820 W/m 11.3 C 19.5 C 12.1 km/h (2 Bft)
16.08.2008 14:00 20.5 C 54 % 1011.3 hPa 0.0 l/m 5.9 km/h (2 Bft) O-SO 0.97 h 747 W/m 10.8 C 20.5 C 12.1 km/h (2 Bft)
16.08.2008 15:00 20.8 C 49 % 1010.6 hPa 0.0 l/m 6.0 km/h (2 Bft) O-SO 1.00 h 701 W/m 9.8 C 20.8 C 12.2 km/h (2 Bft)
16.08.2008 16:00 20.9 C 46 % 1009.9 hPa 0.0 l/m 6.2 km/h (2 Bft) O-SO 1.00 h 568 W/m 8.9 C 20.9 C 12.4 km/h (3 Bft)
16.08.2008 17:00 20.8 C 46 % 1009.4 hPa 0.2 l/m 6.1 km/h (2 Bft) O-SO 1.00 h 411 W/m 8.8 C 20.8 C 11.9 km/h (2 Bft)
16.08.2008 18:00 20.4 C 46 % 1008.9 hPa 0.0 l/m 7.9 km/h (2 Bft) O-SO 1.00 h 279 W/m 8.3 C 20.4 C 13.7 km/h (3 Bft)
16.08.2008 19:00 19.3 C 50 % 1009.1 hPa 0.0 l/m 2.9 km/h (1 Bft) O-SO 0.32 h 89 W/m 8.5 C 19.3 C 5.4 km/h (1 Bft)
16.08.2008 20:00 17.0 C 62 % 1009.3 hPa 0.0 l/m 3.7 km/h (1 Bft) O-SO 0.00 h 16 W/m 9.7 C 17.0 C 5.1 km/h (1 Bft)
16.08.2008 21:00 15.6 C 73 % 1009.7 hPa 0.0 l/m 0.1 km/h (0 Bft) O-SO 0.00 h 0 W/m 10.6 C 15.6 C 0.5 km/h (0 Bft)
16.08.2008 22:00 14.4 C 78 % 1009.6 hPa 0.0 l/m 0.1 km/h (0 Bft) O-SO 0.00 h 0 W/m 10.6 C 14.4 C 0.3 km/h (0 Bft)
16.08.2008 23:00 13.5 C 82 % 1009.7 hPa 0.0 l/m 0.2 km/h (0 Bft) O-SO 0.00 h 0 W/m 10.4 C 13.5 C 0.7 km/h (0 Bft)
17.08.2008 00:00 12.5 C 85 % 1010.1 hPa 0.0 l/m 1.3 km/h (1 Bft) O 0.00 h 0 W/m 10.1 C 12.5 C 2.5 km/h (1 Bft)
17.08.2008 01:00 12.1 C 88 % 1010.1 hPa 0.0 l/m 1.3 km/h (1 Bft) O 0.00 h 0 W/m 10.2 C 12.1 C 2.4 km/h (1 Bft)
17.08.2008 02:00 12.0 C 89 % 1009.9 hPa 0.0 l/m 0.7 km/h (0 Bft) O 0.00 h 0 W/m 10.1 C 12.0 C 2.0 km/h (1 Bft)
17.08.2008 03:00 11.6 C 90 % 1009.9 hPa 0.0 l/m 0.3 km/h (0 Bft) O 0.00 h 0 W/m 10.0 C 11.6 C 1.1 km/h (1 Bft)
17.08.2008 04:00 11.1 C 92 % 1010.1 hPa 0.0 l/m 1.4 km/h (1 Bft) O 0.00 h 0 W/m 9.8 C 11.1 C 2.7 km/h (1 Bft)
17.08.2008 05:00 10.6 C 93 % 1010.5 hPa 0.0 l/m 1.7 km/h (1 Bft) O 0.00 h 0 W/m 9.5 C 10.6 C 3.0 km/h (1 Bft)
17.08.2008 06:00 10.1 C 95 % 1011.0 hPa 0.0 l/m 1.1 km/h (1 Bft) O 0.00 h 12 W/m 9.3 C 10.1 C 2.7 km/h (1 Bft)
17.08.2008 07:00 10.4 C 95 % 1011.4 hPa 0.0 l/m 0.3 km/h (0 Bft) O 0.10 h 62 W/m 9.6 C 10.4 C 0.8 km/h (0 Bft)
17.08.2008 08:00 12.5 C 90 % 1011.7 hPa 0.0 l/m 0.0 km/h (0 Bft) O 0.87 h 230 W/m 10.9 C 12.5 C 0.3 km/h (0 Bft)
17.08.2008 09:00 14.5 C 81 % 1011.7 hPa 0.0 l/m 0.6 km/h (0 Bft) O 0.73 h 323 W/m 11.3 C 14.5 C 2.1 km/h (1 Bft)
17.08.2008 10:00 16.1 C 79 % 1011.9 hPa 0.0 l/m 1.2 km/h (1 Bft) SO 0.60 h 373 W/m 12.3 C 16.1 C 3.5 km/h (1 Bft)
17.08.2008 11:00 17.6 C 73 % 1012.1 hPa 0.0 l/m 1.8 km/h (1 Bft) S-SO 0.17 h 346 W/m 12.7 C 17.6 C 4.2 km/h (1 Bft)
17.08.2008 12:00 17.8 C 71 % 1012.3 hPa 0.0 l/m 3.2 km/h (1 Bft) S-SO 0.00 h 229 W/m 12.5 C 17.8 C 7.5 km/h (2 Bft)
17.08.2008 13:00 17.5 C 73 % 1012.6 hPa 0.0 l/m 3.8 km/h (1 Bft) S-SO 0.00 h 174 W/m 12.6 C 17.5 C 7.6 km/h (2 Bft)
17.08.2008 14:00 18.4 C 72 % 1012.9 hPa 0.0 l/m 2.5 km/h (1 Bft) S-SO 0.07 h 274 W/m 13.3 C 18.4 C 5.9 km/h (2 Bft)
17.08.2008 15:00 19.7 C 69 % 1012.6 hPa 0.0 l/m 2.9 km/h (1 Bft) S-SO 0.40 h 418 W/m 13.8 C 19.7 C 6.3 km/h (2 Bft)
17.08.2008 16:00 20.8 C 65 % 1012.3 hPa 0.0 l/m 2.4 km/h (1 Bft) S-SO 0.28 h 357 W/m 13.9 C 20.8 C 5.3 km/h (1 Bft)
17.08.2008 17:00 19.6 C 69 % 1012.5 hPa 0.0 l/m 0.6 km/h (0 Bft) W 0.00 h 107 W/m 13.8 C 19.6 C 2.3 km/h (1 Bft)
17.08.2008 18:00 20.4 C 66 % 1012.4 hPa 0.0 l/m 1.5 km/h (1 Bft) W-NW 0.43 h 212 W/m 13.8 C 20.4 C 3.0 km/h (1 Bft)
17.08.2008 19:00 19.2 C 70 % 1012.8 hPa 0.0 l/m 0.2 km/h (0 Bft) S-SW 0.00 h 48 W/m 13.6 C 19.2 C 1.1 km/h (1 Bft)
17.08.2008 20:00 18.6 C 71 % 1013.1 hPa 0.0 l/m 1.6 km/h (1 Bft) SO 0.07 h 18 W/m 13.2 C 18.6 C 2.8 km/h (1 Bft)
17.08.2008 21:00 17.1 C 79 % 1013.8 hPa 0.0 l/m 1.9 km/h (1 Bft) SO 0.00 h 0 W/m 13.5 C 17.1 C 3.1 km/h (1 Bft)
17.08.2008 22:00 15.8 C 85 % 1014.2 hPa 0.0 l/m 0.6 km/h (0 Bft) SO 0.00 h 0 W/m 13.4 C 15.8 C 1.1 km/h (1 Bft)
17.08.2008 23:00 14.9 C 91 % 1014.7 hPa 0.0 l/m 0.0 km/h (0 Bft) O-SO 0.00 h 0 W/m 13.3 C 14.9 C 0.4 km/h (0 Bft)
Min-Datum _ 17.08.08 16.08.08 12.08.08 - 11.08.08 - - - 16.08.08 17.08.08 11.08.08
_ Min-Zeit 06:00 16:35 10:30 - 00:06 - - - 19:04 05:55 00:14
Minimum _ 10.0 C 42 % 1000.8 hPa - 0.0 km/h (0 Bft) - - - 7.1 C 10.1 C 0.0 km/h (0 Bft)
Max-Datum _ 11.08.08 11.08.08 14.08.08 12.08.08 15.08.08 - 11.08.08 13.08.08 12.08.08 11.08.08 15.08.08
_ Max-Zeit 13:57 23:48 04:00 15:02 01:06 - 06:29 13:18 11:34 13:57 00:57
Maximum _ 25.6 C 100 % 1017.9 hPa 5.8 l/m 24.3 km/h
W-NW (4 Bft)
- 0.02 h 1127 W/m 19.1 C 25.6 C 40.0 km/h
O (6 Bft)
Durchschnitt _ 16.5 C 84 % 1011.0 hPa #73.6 l/m 2.3 km/h (1 Bft) O-SO #31:05 h 241 W/m 13.4 C 16.5 C 4.3 km/h (1 Bft)
© Kaiko 2008